sensor_id;sensor_type;location;lat;lon;timestamp;temperature;humidity
17845;DHT22;9047;53.486;10.218;2022-11-20T00:01:57;2.30;99.90
17845;DHT22;9047;53.486;10.218;2022-11-20T00:04:26;2.20;99.90
17845;DHT22;9047;53.486;10.218;2022-11-20T00:06:54;2.30;99.90
17845;DHT22;9047;53.486;10.218;2022-11-20T00:09:22;2.30;99.90
17845;DHT22;9047;53.486;10.218;2022-11-20T00:11:52;2.30;99.90
17845;DHT22;9047;53.486;10.218;2022-11-20T00:14:21;2.20;99.90
17845;DHT22;9047;53.486;10.218;2022-11-20T00:16:51;2.30;99.90
17845;DHT22;9047;53.486;10.218;2022-11-20T00:19:19;2.30;99.90
17845;DHT22;9047;53.486;10.218;2022-11-20T00:21:48;2.30;99.90
17845;DHT22;9047;53.486;10.218;2022-11-20T00:24:19;2.60;99.90
17845;DHT22;9047;53.486;10.218;2022-11-20T00:26:48;2.40;99.90
17845;DHT22;9047;53.486;10.218;2022-11-20T00:29:16;2.40;99.90
17845;DHT22;9047;53.486;10.218;2022-11-20T00:31:44;2.40;99.90
17845;DHT22;9047;53.486;10.218;2022-11-20T00:34:14;2.40;99.90
17845;DHT22;9047;53.486;10.218;2022-11-20T00:36:41;2.40;99.90
17845;DHT22;9047;53.486;10.218;2022-11-20T00:39:10;2.40;99.90
17845;DHT22;9047;53.486;10.218;2022-11-20T00:41:41;2.40;99.90
17845;DHT22;9047;53.486;10.218;2022-11-20T00:44:22;2.40;99.90
17845;DHT22;9047;53.486;10.218;2022-11-20T00:46:58;2.40;99.90
17845;DHT22;9047;53.486;10.218;2022-11-20T00:49:28;2.40;99.90
17845;DHT22;9047;53.486;10.218;2022-11-20T00:51:58;2.30;99.90
17845;DHT22;9047;53.486;10.218;2022-11-20T00:54:27;2.30;99.90
17845;DHT22;9047;53.486;10.218;2022-11-20T00:56:56;2.30;99.90
17845;DHT22;9047;53.486;10.218;2022-11-20T00:59:25;2.20;99.90
17845;DHT22;9047;53.486;10.218;2022-11-20T01:01:52;2.30;99.90
17845;DHT22;9047;53.486;10.218;2022-11-20T01:04:19;2.50;99.90
17845;DHT22;9047;53.486;10.218;2022-11-20T01:06:50;2.30;99.90
17845;DHT22;9047;53.486;10.218;2022-11-20T01:09:18;2.30;99.90
17845;DHT22;9047;53.486;10.218;2022-11-20T01:11:47;2.30;99.90
17845;DHT22;9047;53.486;10.218;2022-11-20T01:14:16;2.40;99.90
17845;DHT22;9047;53.486;10.218;2022-11-20T01:16:49;2.30;99.90
17845;DHT22;9047;53.486;10.218;2022-11-20T01:19:20;2.30;99.90
17845;DHT22;9047;53.486;10.218;2022-11-20T01:21:53;2.30;99.90
17845;DHT22;9047;53.486;10.218;2022-11-20T01:24:22;2.30;99.90
17845;DHT22;9047;53.486;10.218;2022-11-20T01:26:52;2.30;99.90
17845;DHT22;9047;53.486;10.218;2022-11-20T01:29:21;2.30;99.90
17845;DHT22;9047;53.486;10.218;2022-11-20T01:31:52;2.40;99.90
17845;DHT22;9047;53.486;10.218;2022-11-20T01:34:23;2.30;99.90
17845;DHT22;9047;53.486;10.218;2022-11-20T01:36:54;2.30;99.90
17845;DHT22;9047;53.486;10.218;2022-11-20T01:39:23;2.30;99.90
17845;DHT22;9047;53.486;10.218;2022-11-20T01:42:06;2.40;99.90
17845;DHT22;9047;53.486;10.218;2022-11-20T01:44:54;2.40;99.90
17845;DHT22;9047;53.486;10.218;2022-11-20T01:47:31;2.40;99.90
17845;DHT22;9047;53.486;10.218;2022-11-20T01:50:08;2.40;99.90
17845;DHT22;9047;53.486;10.218;2022-11-20T01:52:42;2.40;99.90
17845;DHT22;9047;53.486;10.218;2022-11-20T01:55:15;2.40;99.90
17845;DHT22;9047;53.486;10.218;2022-11-20T01:57:45;2.40;99.90
17845;DHT22;9047;53.486;10.218;2022-11-20T02:00:17;2.40;99.90
17845;DHT22;9047;53.486;10.218;2022-11-20T02:02:56;2.40;99.90
17845;DHT22;9047;53.486;10.218;2022-11-20T02:05:31;2.40;99.90
17845;DHT22;9047;53.486;10.218;2022-11-20T02:08:05;2.40;99.90
17845;DHT22;9047;53.486;10.218;2022-11-20T02:10:40;2.40;99.90
17845;DHT22;9047;53.486;10.218;2022-11-20T02:13:10;2.40;99.90
17845;DHT22;9047;53.486;10.218;2022-11-20T02:15:54;2.50;99.90
17845;DHT22;9047;53.486;10.218;2022-11-20T02:18:23;2.50;99.90
17845;DHT22;9047;53.486;10.218;2022-11-20T02:20:55;2.50;99.90
17845;DHT22;9047;53.486;10.218;2022-11-20T02:23:32;2.50;99.90
17845;DHT22;9047;53.486;10.218;2022-11-20T02:26:05;2.50;99.90
17845;DHT22;9047;53.486;10.218;2022-11-20T02:28:35;2.50;99.90
17845;DHT22;9047;53.486;10.218;2022-11-20T02:31:03;2.50;99.90
17845;DHT22;9047;53.486;10.218;2022-11-20T02:33:30;2.50;99.90
17845;DHT22;9047;53.486;10.218;2022-11-20T02:35:59;2.50;99.90
17845;DHT22;9047;53.486;10.218;2022-11-20T02:38:27;2.50;99.90
17845;DHT22;9047;53.486;10.218;2022-11-20T02:40:58;2.50;99.90
17845;DHT22;9047;53.486;10.218;2022-11-20T02:43:29;2.50;99.90
17845;DHT22;9047;53.486;10.218;2022-11-20T02:45:57;2.50;99.90
17845;DHT22;9047;53.486;10.218;2022-11-20T02:48:25;2.50;99.90
17845;DHT22;9047;53.486;10.218;2022-11-20T02:50:52;2.50;99.90
17845;DHT22;9047;53.486;10.218;2022-11-20T02:53:20;2.50;99.90
17845;DHT22;9047;53.486;10.218;2022-11-20T02:55:47;2.50;99.90
17845;DHT22;9047;53.486;10.218;2022-11-20T02:58:17;2.70;99.90
17845;DHT22;9047;53.486;10.218;2022-11-20T03:00:47;2.50;99.90
17845;DHT22;9047;53.486;10.218;2022-11-20T03:03:16;2.50;99.90
17845;DHT22;9047;53.486;10.218;2022-11-20T03:05:44;2.50;99.90
17845;DHT22;9047;53.486;10.218;2022-11-20T03:08:27;2.50;99.90
17845;DHT22;9047;53.486;10.218;2022-11-20T03:10:54;2.50;99.90
17845;DHT22;9047;53.486;10.218;2022-11-20T03:13:22;2.50;99.90
17845;DHT22;9047;53.486;10.218;2022-11-20T03:15:55;2.50;99.90
17845;DHT22;9047;53.486;10.218;2022-11-20T03:18:22;2.50;99.90
17845;DHT22;9047;53.486;10.218;2022-11-20T03:21:09;2.50;99.90
17845;DHT22;9047;53.486;10.218;2022-11-20T03:23:37;2.50;99.90
17845;DHT22;9047;53.486;10.218;2022-11-20T03:26:13;2.50;99.90
17845;DHT22;9047;53.486;10.218;2022-11-20T03:28:42;2.50;99.90
17845;DHT22;9047;53.486;10.218;2022-11-20T03:31:12;2.50;99.90
17845;DHT22;9047;53.486;10.218;2022-11-20T03:33:42;2.50;99.90
17845;DHT22;9047;53.486;10.218;2022-11-20T03:36:11;2.50;99.90
17845;DHT22;9047;53.486;10.218;2022-11-20T03:38:41;2.50;99.90
17845;DHT22;9047;53.486;10.218;2022-11-20T03:41:11;2.50;99.90
17845;DHT22;9047;53.486;10.218;2022-11-20T03:43:40;2.50;99.90
17845;DHT22;9047;53.486;10.218;2022-11-20T03:46:07;2.50;99.90
17845;DHT22;9047;53.486;10.218;2022-11-20T03:48:38;2.50;99.90
17845;DHT22;9047;53.486;10.218;2022-11-20T03:51:10;2.50;99.90
17845;DHT22;9047;53.486;10.218;2022-11-20T03:53:39;2.50;99.90
17845;DHT22;9047;53.486;10.218;2022-11-20T03:56:08;2.50;99.90
17845;DHT22;9047;53.486;10.218;2022-11-20T03:58:37;2.50;99.90
17845;DHT22;9047;53.486;10.218;2022-11-20T04:01:08;2.50;99.90
17845;DHT22;9047;53.486;10.218;2022-11-20T04:03:37;2.50;99.90
17845;DHT22;9047;53.486;10.218;2022-11-20T04:06:12;2.50;99.90
17845;DHT22;9047;53.486;10.218;2022-11-20T04:08:39;2.50;99.90
17845;DHT22;9047;53.486;10.218;2022-11-20T04:11:13;2.50;99.90
17845;DHT22;9047;53.486;10.218;2022-11-20T04:13:45;2.50;99.90
17845;DHT22;9047;53.486;10.218;2022-11-20T04:16:15;2.50;99.90
17845;DHT22;9047;53.486;10.218;2022-11-20T04:18:45;2.50;99.90
17845;DHT22;9047;53.486;10.218;2022-11-20T04:21:12;2.50;99.90
17845;DHT22;9047;53.486;10.218;2022-11-20T04:23:40;2.50;99.90
17845;DHT22;9047;53.486;10.218;2022-11-20T04:26:08;2.50;99.90
17845;DHT22;9047;53.486;10.218;2022-11-20T04:28:37;2.50;99.90
17845;DHT22;9047;53.486;10.218;2022-11-20T04:31:06;2.50;99.90
17845;DHT22;9047;53.486;10.218;2022-11-20T04:33:33;2.40;99.90
17845;DHT22;9047;53.486;10.218;2022-11-20T04:36:09;2.40;99.90
17845;DHT22;9047;53.486;10.218;2022-11-20T04:38:40;2.40;99.90
17845;DHT22;9047;53.486;10.218;2022-11-20T04:41:09;2.40;99.90
17845;DHT22;9047;53.486;10.218;2022-11-20T04:43:45;2.40;99.90
17845;DHT22;9047;53.486;10.218;2022-11-20T04:46:12;2.40;99.90
17845;DHT22;9047;53.486;10.218;2022-11-20T04:48:41;2.40;99.90
17845;DHT22;9047;53.486;10.218;2022-11-20T04:51:12;2.40;99.90
17845;DHT22;9047;53.486;10.218;2022-11-20T04:53:39;2.40;99.90
17845;DHT22;9047;53.486;10.218;2022-11-20T04:56:08;2.50;99.90
17845;DHT22;9047;53.486;10.218;2022-11-20T04:58:46;2.50;99.90
17845;DHT22;9047;53.486;10.218;2022-11-20T05:01:19;2.50;99.90
17845;DHT22;9047;53.486;10.218;2022-11-20T05:03:47;2.50;99.90
17845;DHT22;9047;53.486;10.218;2022-11-20T05:06:21;2.50;99.90
17845;DHT22;9047;53.486;10.218;2022-11-20T05:08:51;2.50;99.90
17845;DHT22;9047;53.486;10.218;2022-11-20T05:11:31;2.60;99.90
17845;DHT22;9047;53.486;10.218;2022-11-20T05:14:00;2.60;99.90
17845;DHT22;9047;53.486;10.218;2022-11-20T05:16:30;2.60;99.90
17845;DHT22;9047;53.486;10.218;2022-11-20T05:19:01;2.50;99.90
17845;DHT22;9047;53.486;10.218;2022-11-20T05:21:37;2.50;99.90
17845;DHT22;9047;53.486;10.218;2022-11-20T05:24:07;2.60;99.90
17845;DHT22;9047;53.486;10.218;2022-11-20T05:26:35;2.40;99.90
17845;DHT22;9047;53.486;10.218;2022-11-20T05:29:03;2.40;99.90
17845;DHT22;9047;53.486;10.218;2022-11-20T05:31:34;2.40;99.90
17845;DHT22;9047;53.486;10.218;2022-11-20T05:34:04;2.30;99.90
17845;DHT22;9047;53.486;10.218;2022-11-20T05:36:33;2.30;99.90
17845;DHT22;9047;53.486;10.218;2022-11-20T05:39:01;2.30;99.90
17845;DHT22;9047;53.486;10.218;2022-11-20T05:41:38;2.30;99.90
17845;DHT22;9047;53.486;10.218;2022-11-20T05:44:09;2.30;99.90
17845;DHT22;9047;53.486;10.218;2022-11-20T05:46:38;2.30;99.90
17845;DHT22;9047;53.486;10.218;2022-11-20T05:49:08;2.30;99.90
17845;DHT22;9047;53.486;10.218;2022-11-20T05:51:40;2.20;99.90
17845;DHT22;9047;53.486;10.218;2022-11-20T05:54:11;2.20;99.90
17845;DHT22;9047;53.486;10.218;2022-11-20T05:56:38;2.20;99.90
17845;DHT22;9047;53.486;10.218;2022-11-20T05:59:07;2.20;99.90
17845;DHT22;9047;53.486;10.218;2022-11-20T06:01:36;2.20;99.90
17845;DHT22;9047;53.486;10.218;2022-11-20T06:04:08;2.10;99.90
17845;DHT22;9047;53.486;10.218;2022-11-20T06:06:39;2.10;99.90
17845;DHT22;9047;53.486;10.218;2022-11-20T06:09:12;2.10;99.90
17845;DHT22;9047;53.486;10.218;2022-11-20T06:11:39;2.10;99.90
17845;DHT22;9047;53.486;10.218;2022-11-20T06:14:06;2.10;99.90
17845;DHT22;9047;53.486;10.218;2022-11-20T06:16:33;2.10;99.90
17845;DHT22;9047;53.486;10.218;2022-11-20T06:19:00;2.00;99.90
17845;DHT22;9047;53.486;10.218;2022-11-20T06:21:29;2.00;99.90
17845;DHT22;9047;53.486;10.218;2022-11-20T06:23:58;2.00;99.90
17845;DHT22;9047;53.486;10.218;2022-11-20T06:26:28;2.00;99.90
17845;DHT22;9047;53.486;10.218;2022-11-20T06:28:55;2.00;99.90
17845;DHT22;9047;53.486;10.218;2022-11-20T06:31:26;1.90;99.90
17845;DHT22;9047;53.486;10.218;2022-11-20T06:33:54;1.90;99.90
17845;DHT22;9047;53.486;10.218;2022-11-20T06:36:22;1.80;99.90
17845;DHT22;9047;53.486;10.218;2022-11-20T06:38:50;1.90;99.90
17845;DHT22;9047;53.486;10.218;2022-11-20T06:41:21;1.80;99.90
17845;DHT22;9047;53.486;10.218;2022-11-20T06:43:49;1.90;99.90
17845;DHT22;9047;53.486;10.218;2022-11-20T06:46:17;1.80;99.90
17845;DHT22;9047;53.486;10.218;2022-11-20T06:48:47;1.90;99.90
17845;DHT22;9047;53.486;10.218;2022-11-20T06:51:16;1.90;99.90
17845;DHT22;9047;53.486;10.218;2022-11-20T06:53:44;1.80;99.90
17845;DHT22;9047;53.486;10.218;2022-11-20T06:56:11;1.90;99.90
17845;DHT22;9047;53.486;10.218;2022-11-20T06:58:40;1.80;99.90
17845;DHT22;9047;53.486;10.218;2022-11-20T07:01:09;1.90;99.90
17845;DHT22;9047;53.486;10.218;2022-11-20T07:03:38;1.90;99.90
17845;DHT22;9047;53.486;10.218;2022-11-20T07:06:07;1.80;99.90
17845;DHT22;9047;53.486;10.218;2022-11-20T07:08:36;1.90;99.90
17845;DHT22;9047;53.486;10.218;2022-11-20T07:11:05;1.90;99.90
17845;DHT22;9047;53.486;10.218;2022-11-20T07:13:34;2.00;99.90
17845;DHT22;9047;53.486;10.218;2022-11-20T07:16:06;2.00;99.90
17845;DHT22;9047;53.486;10.218;2022-11-20T07:18:37;2.00;99.90
17845;DHT22;9047;53.486;10.218;2022-11-20T07:21:06;2.00;99.90
17845;DHT22;9047;53.486;10.218;2022-11-20T07:23:38;2.10;99.90
17845;DHT22;9047;53.486;10.218;2022-11-20T07:26:07;2.10;99.90
17845;DHT22;9047;53.486;10.218;2022-11-20T07:28:44;2.20;99.90
17845;DHT22;9047;53.486;10.218;2022-11-20T07:31:14;2.20;99.90
17845;DHT22;9047;53.486;10.218;2022-11-20T07:33:45;2.20;99.90
17845;DHT22;9047;53.486;10.218;2022-11-20T07:36:18;2.30;99.90
17845;DHT22;9047;53.486;10.218;2022-11-20T07:38:45;2.30;99.90
17845;DHT22;9047;53.486;10.218;2022-11-20T07:41:22;2.30;99.90
17845;DHT22;9047;53.486;10.218;2022-11-20T07:43:53;2.30;99.90
17845;DHT22;9047;53.486;10.218;2022-11-20T07:46:23;2.30;99.90
17845;DHT22;9047;53.486;10.218;2022-11-20T07:49:05;2.40;99.90
17845;DHT22;9047;53.486;10.218;2022-11-20T07:51:41;2.50;99.90
17845;DHT22;9047;53.486;10.218;2022-11-20T07:54:18;2.50;99.90
17845;DHT22;9047;53.486;10.218;2022-11-20T07:56:45;2.60;99.90
17845;DHT22;9047;53.486;10.218;2022-11-20T08:01:57;2.50;99.90
17845;DHT22;9047;53.486;10.218;2022-11-20T08:04:32;2.60;99.90
17845;DHT22;9047;53.486;10.218;2022-11-20T08:06:59;2.60;99.90
17845;DHT22;9047;53.486;10.218;2022-11-20T08:09:27;2.60;99.90
17845;DHT22;9047;53.486;10.218;2022-11-20T08:11:57;2.60;99.90
17845;DHT22;9047;53.486;10.218;2022-11-20T08:17:58;2.80;99.90
17845;DHT22;9047;53.486;10.218;2022-11-20T08:20:45;2.80;99.90
17845;DHT22;9047;53.486;10.218;2022-11-20T08:23:16;2.90;99.90
17845;DHT22;9047;53.486;10.218;2022-11-20T08:25:43;2.90;99.90
17845;DHT22;9047;53.486;10.218;2022-11-20T08:28:11;2.90;99.90
17845;DHT22;9047;53.486;10.218;2022-11-20T08:30:41;3.00;99.90
17845;DHT22;9047;53.486;10.218;2022-11-20T08:33:18;3.00;99.90
17845;DHT22;9047;53.486;10.218;2022-11-20T08:35:47;3.00;99.90
17845;DHT22;9047;53.486;10.218;2022-11-20T08:38:28;3.10;99.90
17845;DHT22;9047;53.486;10.218;2022-11-20T08:40:57;3.10;99.90
17845;DHT22;9047;53.486;10.218;2022-11-20T08:43:42;3.10;99.90
17845;DHT22;9047;53.486;10.218;2022-11-20T08:46:12;3.20;99.90
17845;DHT22;9047;53.486;10.218;2022-11-20T08:48:43;3.20;99.90
17845;DHT22;9047;53.486;10.218;2022-11-20T08:51:14;3.30;99.90
17845;DHT22;9047;53.486;10.218;2022-11-20T08:53:42;3.30;99.90
17845;DHT22;9047;53.486;10.218;2022-11-20T08:56:12;3.30;99.90
17845;DHT22;9047;53.486;10.218;2022-11-20T08:58:39;3.30;99.90
17845;DHT22;9047;53.486;10.218;2022-11-20T09:01:07;3.30;99.90
17845;DHT22;9047;53.486;10.218;2022-11-20T09:03:52;3.40;99.90
17845;DHT22;9047;53.486;10.218;2022-11-20T09:06:23;3.50;99.90
17845;DHT22;9047;53.486;10.218;2022-11-20T09:09:02;3.70;99.90
17845;DHT22;9047;53.486;10.218;2022-11-20T09:11:34;3.70;99.90
17845;DHT22;9047;53.486;10.218;2022-11-20T09:14:04;3.80;99.90
17845;DHT22;9047;53.486;10.218;2022-11-20T09:16:40;4.00;99.90
17845;DHT22;9047;53.486;10.218;2022-11-20T09:19:09;3.90;99.90
17845;DHT22;9047;53.486;10.218;2022-11-20T09:21:40;4.00;99.90
17845;DHT22;9047;53.486;10.218;2022-11-20T09:24:08;4.00;99.90
17845;DHT22;9047;53.486;10.218;2022-11-20T09:26:36;4.10;99.90
17845;DHT22;9047;53.486;10.218;2022-11-20T09:29:04;4.10;99.90
17845;DHT22;9047;53.486;10.218;2022-11-20T09:31:31;4.20;99.90
17845;DHT22;9047;53.486;10.218;2022-11-20T09:33:58;4.30;99.90
17845;DHT22;9047;53.486;10.218;2022-11-20T09:36:28;4.40;99.90
17845;DHT22;9047;53.486;10.218;2022-11-20T09:38:56;4.50;99.90
17845;DHT22;9047;53.486;10.218;2022-11-20T09:41:56;4.60;99.90
17845;DHT22;9047;53.486;10.218;2022-11-20T09:44:38;4.60;99.90
17845;DHT22;9047;53.486;10.218;2022-11-20T09:47:09;4.70;99.90
17845;DHT22;9047;53.486;10.218;2022-11-20T09:49:54;4.60;99.90
17845;DHT22;9047;53.486;10.218;2022-11-20T09:52:33;4.60;99.90
17845;DHT22;9047;53.486;10.218;2022-11-20T09:55:10;4.60;99.90
17845;DHT22;9047;53.486;10.218;2022-11-20T09:57:44;4.60;99.90
17845;DHT22;9047;53.486;10.218;2022-11-20T10:00:14;4.70;99.90
17845;DHT22;9047;53.486;10.218;2022-11-20T10:02:46;4.70;99.90
17845;DHT22;9047;53.486;10.218;2022-11-20T10:05:19;4.80;99.90
17845;DHT22;9047;53.486;10.218;2022-11-20T10:07:53;4.90;99.90
17845;DHT22;9047;53.486;10.218;2022-11-20T10:10:31;4.90;99.90
17845;DHT22;9047;53.486;10.218;2022-11-20T10:13:13;4.70;99.90
17845;DHT22;9047;53.486;10.218;2022-11-20T10:15:52;4.50;99.90
17845;DHT22;9047;53.486;10.218;2022-11-20T10:18:30;4.40;99.90
17845;DHT22;9047;53.486;10.218;2022-11-20T10:21:12;4.20;99.90
17845;DHT22;9047;53.486;10.218;2022-11-20T10:24:03;4.20;99.90
17845;DHT22;9047;53.486;10.218;2022-11-20T10:26:42;4.00;99.90
17845;DHT22;9047;53.486;10.218;2022-11-20T10:29:13;4.00;99.90
17845;DHT22;9047;53.486;10.218;2022-11-20T10:31:42;4.00;99.90
17845;DHT22;9047;53.486;10.218;2022-11-20T10:34:20;4.00;99.90
17845;DHT22;9047;53.486;10.218;2022-11-20T10:36:52;4.00;99.90
17845;DHT22;9047;53.486;10.218;2022-11-20T10:39:30;4.00;99.90
17845;DHT22;9047;53.486;10.218;2022-11-20T10:41:59;4.10;99.90
17845;DHT22;9047;53.486;10.218;2022-11-20T10:44:29;4.20;99.90
17845;DHT22;9047;53.486;10.218;2022-11-20T10:47:15;4.40;99.90
17845;DHT22;9047;53.486;10.218;2022-11-20T10:49:42;4.50;99.90
17845;DHT22;9047;53.486;10.218;2022-11-20T10:52:19;4.60;99.90
17845;DHT22;9047;53.486;10.218;2022-11-20T10:54:53;4.60;99.90
17845;DHT22;9047;53.486;10.218;2022-11-20T10:57:34;4.60;99.90
17845;DHT22;9047;53.486;10.218;2022-11-20T11:00:06;4.50;99.90
17845;DHT22;9047;53.486;10.218;2022-11-20T11:02:38;4.30;99.90
17845;DHT22;9047;53.486;10.218;2022-11-20T11:05:29;4.20;99.90
17845;DHT22;9047;53.486;10.218;2022-11-20T11:08:00;4.20;99.90
17845;DHT22;9047;53.486;10.218;2022-11-20T11:10:36;4.10;99.90
17845;DHT22;9047;53.486;10.218;2022-11-20T11:13:19;4.20;99.90
17845;DHT22;9047;53.486;10.218;2022-11-20T11:15:48;4.20;99.90
17845;DHT22;9047;53.486;10.218;2022-11-20T11:18:24;4.10;99.90
17845;DHT22;9047;53.486;10.218;2022-11-20T11:20:55;4.20;99.90
17845;DHT22;9047;53.486;10.218;2022-11-20T11:23:31;4.30;99.90
17845;DHT22;9047;53.486;10.218;2022-11-20T11:26:18;4.30;99.90
17845;DHT22;9047;53.486;10.218;2022-11-20T11:28:54;4.30;99.90
17845;DHT22;9047;53.486;10.218;2022-11-20T11:31:35;4.30;99.90
17845;DHT22;9047;53.486;10.218;2022-11-20T11:34:06;4.30;99.90
17845;DHT22;9047;53.486;10.218;2022-11-20T11:36:36;4.30;99.90
17845;DHT22;9047;53.486;10.218;2022-11-20T11:39:13;4.20;99.90
17845;DHT22;9047;53.486;10.218;2022-11-20T11:41:48;4.20;99.90
17845;DHT22;9047;53.486;10.218;2022-11-20T11:44:21;4.10;99.90
17845;DHT22;9047;53.486;10.218;2022-11-20T11:47:08;4.10;99.90
17845;DHT22;9047;53.486;10.218;2022-11-20T11:49:42;4.00;99.90
17845;DHT22;9047;53.486;10.218;2022-11-20T11:52:17;4.10;99.90
17845;DHT22;9047;53.486;10.218;2022-11-20T11:54:54;4.10;99.90
17845;DHT22;9047;53.486;10.218;2022-11-20T11:57:34;4.00;99.90
17845;DHT22;9047;53.486;10.218;2022-11-20T12:00:09;4.00;99.90
17845;DHT22;9047;53.486;10.218;2022-11-20T12:02:57;4.10;99.90
17845;DHT22;9047;53.486;10.218;2022-11-20T12:05:34;4.20;99.90
17845;DHT22;9047;53.486;10.218;2022-11-20T12:08:06;4.20;99.90
17845;DHT22;9047;53.486;10.218;2022-11-20T12:10:45;4.30;99.90
17845;DHT22;9047;53.486;10.218;2022-11-20T12:13:25;4.30;99.90
17845;DHT22;9047;53.486;10.218;2022-11-20T12:15:55;4.30;99.90
17845;DHT22;9047;53.486;10.218;2022-11-20T12:18:24;4.40;99.90
17845;DHT22;9047;53.486;10.218;2022-11-20T12:21:02;4.40;99.90
17845;DHT22;9047;53.486;10.218;2022-11-20T12:23:37;4.50;99.90
17845;DHT22;9047;53.486;10.218;2022-11-20T12:26:16;4.70;99.90
17845;DHT22;9047;53.486;10.218;2022-11-20T12:28:59;4.70;99.90
17845;DHT22;9047;53.486;10.218;2022-11-20T12:31:51;4.90;99.90
17845;DHT22;9047;53.486;10.218;2022-11-20T12:34:32;4.90;99.90
17845;DHT22;9047;53.486;10.218;2022-11-20T12:37:11;4.80;99.90
17845;DHT22;9047;53.486;10.218;2022-11-20T12:39:42;4.80;99.90
17845;DHT22;9047;53.486;10.218;2022-11-20T12:42:40;4.70;99.90
17845;DHT22;9047;53.486;10.218;2022-11-20T12:45:51;4.60;99.90
17845;DHT22;9047;53.486;10.218;2022-11-20T12:48:38;4.40;99.90
17845;DHT22;9047;53.486;10.218;2022-11-20T12:51:29;4.40;99.90
17845;DHT22;9047;53.486;10.218;2022-11-20T12:54:32;4.40;99.90
17845;DHT22;9047;53.486;10.218;2022-11-20T12:57:13;4.30;99.90
17845;DHT22;9047;53.486;10.218;2022-11-20T13:00:07;4.30;99.90
17845;DHT22;9047;53.486;10.218;2022-11-20T13:02:54;4.30;99.90
17845;DHT22;9047;53.486;10.218;2022-11-20T13:05:31;4.30;99.90
17845;DHT22;9047;53.486;10.218;2022-11-20T13:08:03;4.20;99.90
17845;DHT22;9047;53.486;10.218;2022-11-20T13:10:34;4.20;99.90
17845;DHT22;9047;53.486;10.218;2022-11-20T13:13:11;4.10;99.90
17845;DHT22;9047;53.486;10.218;2022-11-20T13:15:51;4.10;99.90
17845;DHT22;9047;53.486;10.218;2022-11-20T13:18:35;4.00;99.90
17845;DHT22;9047;53.486;10.218;2022-11-20T13:21:16;3.90;99.90
17845;DHT22;9047;53.486;10.218;2022-11-20T13:23:43;3.80;99.90
17845;DHT22;9047;53.486;10.218;2022-11-20T13:26:19;3.80;99.90
17845;DHT22;9047;53.486;10.218;2022-11-20T13:29:00;3.80;99.90
17845;DHT22;9047;53.486;10.218;2022-11-20T13:31:31;3.90;99.90
17845;DHT22;9047;53.486;10.218;2022-11-20T13:34:04;3.90;99.90
17845;DHT22;9047;53.486;10.218;2022-11-20T13:36:32;4.00;99.90
17845;DHT22;9047;53.486;10.218;2022-11-20T13:39:05;4.00;99.90
17845;DHT22;9047;53.486;10.218;2022-11-20T13:41:34;4.10;99.90
17845;DHT22;9047;53.486;10.218;2022-11-20T13:44:12;4.10;99.90
17845;DHT22;9047;53.486;10.218;2022-11-20T13:46:45;4.20;99.90
17845;DHT22;9047;53.486;10.218;2022-11-20T13:49:21;4.30;99.90
17845;DHT22;9047;53.486;10.218;2022-11-20T13:51:52;4.50;99.90
17845;DHT22;9047;53.486;10.218;2022-11-20T13:54:42;4.50;99.90
17845;DHT22;9047;53.486;10.218;2022-11-20T13:57:32;4.70;99.90
17845;DHT22;9047;53.486;10.218;2022-11-20T14:00:11;5.00;99.90
17845;DHT22;9047;53.486;10.218;2022-11-20T14:02:39;5.10;99.90
17845;DHT22;9047;53.486;10.218;2022-11-20T14:05:19;5.10;99.90
17845;DHT22;9047;53.486;10.218;2022-11-20T14:07:53;4.90;99.90
17845;DHT22;9047;53.486;10.218;2022-11-20T14:10:23;4.80;99.90
17845;DHT22;9047;53.486;10.218;2022-11-20T14:12:52;4.70;99.90
17845;DHT22;9047;53.486;10.218;2022-11-20T14:15:27;4.60;99.90
17845;DHT22;9047;53.486;10.218;2022-11-20T14:17:54;4.50;99.90
17845;DHT22;9047;53.486;10.218;2022-11-20T14:20:28;4.40;99.90
17845;DHT22;9047;53.486;10.218;2022-11-20T14:22:57;4.30;99.90
17845;DHT22;9047;53.486;10.218;2022-11-20T14:25:25;4.20;99.90
17845;DHT22;9047;53.486;10.218;2022-11-20T14:27:58;4.20;99.90
17845;DHT22;9047;53.486;10.218;2022-11-20T14:30:29;4.10;99.90
17845;DHT22;9047;53.486;10.218;2022-11-20T14:33:14;4.00;99.90
17845;DHT22;9047;53.486;10.218;2022-11-20T14:35:58;4.00;99.90
17845;DHT22;9047;53.486;10.218;2022-11-20T14:38:28;3.90;99.90
17845;DHT22;9047;53.486;10.218;2022-11-20T14:41:14;3.90;99.90
17845;DHT22;9047;53.486;10.218;2022-11-20T14:43:52;3.80;99.90
17845;DHT22;9047;53.486;10.218;2022-11-20T14:46:23;3.80;99.90
17845;DHT22;9047;53.486;10.218;2022-11-20T14:48:54;3.80;99.90
17845;DHT22;9047;53.486;10.218;2022-11-20T14:51:32;3.70;99.90
17845;DHT22;9047;53.486;10.218;2022-11-20T14:54:10;3.70;99.90
17845;DHT22;9047;53.486;10.218;2022-11-20T14:56:53;3.70;99.90
17845;DHT22;9047;53.486;10.218;2022-11-20T14:59:23;3.60;99.90
17845;DHT22;9047;53.486;10.218;2022-11-20T15:02:01;3.60;99.90
17845;DHT22;9047;53.486;10.218;2022-11-20T15:04:45;3.60;99.90
17845;DHT22;9047;53.486;10.218;2022-11-20T15:07:32;3.50;99.90
17845;DHT22;9047;53.486;10.218;2022-11-20T15:10:02;3.50;99.90
17845;DHT22;9047;53.486;10.218;2022-11-20T15:12:31;3.50;99.90
17845;DHT22;9047;53.486;10.218;2022-11-20T15:15:01;3.50;99.90
17845;DHT22;9047;53.486;10.218;2022-11-20T15:17:36;3.40;99.90
17845;DHT22;9047;53.486;10.218;2022-11-20T15:20:10;3.40;99.90
17845;DHT22;9047;53.486;10.218;2022-11-20T15:22:39;3.40;99.90
17845;DHT22;9047;53.486;10.218;2022-11-20T15:25:12;3.40;99.90
17845;DHT22;9047;53.486;10.218;2022-11-20T15:27:40;3.40;99.90
17845;DHT22;9047;53.486;10.218;2022-11-20T15:30:13;3.40;99.90
17845;DHT22;9047;53.486;10.218;2022-11-20T15:32:43;3.30;99.90
17845;DHT22;9047;53.486;10.218;2022-11-20T15:35:11;3.30;99.90
17845;DHT22;9047;53.486;10.218;2022-11-20T15:37:40;3.40;99.90
17845;DHT22;9047;53.486;10.218;2022-11-20T15:40:11;3.40;99.90
17845;DHT22;9047;53.486;10.218;2022-11-20T15:42:38;3.40;99.90
17845;DHT22;9047;53.486;10.218;2022-11-20T15:45:25;3.40;99.90
17845;DHT22;9047;53.486;10.218;2022-11-20T15:47:57;3.40;99.90
17845;DHT22;9047;53.486;10.218;2022-11-20T15:50:27;3.40;99.90
17845;DHT22;9047;53.486;10.218;2022-11-20T15:53:00;3.40;99.90
17845;DHT22;9047;53.486;10.218;2022-11-20T15:55:29;3.40;99.90
17845;DHT22;9047;53.486;10.218;2022-11-20T15:57:56;3.40;99.90
17845;DHT22;9047;53.486;10.218;2022-11-20T16:00:23;3.30;99.90
17845;DHT22;9047;53.486;10.218;2022-11-20T16:02:52;3.30;99.90
17845;DHT22;9047;53.486;10.218;2022-11-20T16:05:20;3.30;99.90
17845;DHT22;9047;53.486;10.218;2022-11-20T16:07:49;3.30;99.90
17845;DHT22;9047;53.486;10.218;2022-11-20T16:10:19;3.30;99.90
17845;DHT22;9047;53.486;10.218;2022-11-20T16:12:46;3.30;99.90
17845;DHT22;9047;53.486;10.218;2022-11-20T16:15:32;3.30;99.90
17845;DHT22;9047;53.486;10.218;2022-11-20T16:18:13;3.30;99.90
17845;DHT22;9047;53.486;10.218;2022-11-20T16:20:41;3.30;99.90
17845;DHT22;9047;53.486;10.218;2022-11-20T16:23:08;3.30;99.90
17845;DHT22;9047;53.486;10.218;2022-11-20T16:25:37;3.30;99.90
17845;DHT22;9047;53.486;10.218;2022-11-20T16:28:08;3.30;99.90